createdAt,value
2023-03-26T00:00:13.299Z,85.12
2023-03-26T00:01:23.925Z,85.11
2023-03-26T00:02:29.998Z,85.34
2023-03-26T00:03:34.778Z,85.57
2023-03-26T00:04:38.577Z,85.37
2023-03-26T00:05:41.321Z,85.68
2023-03-26T00:06:44.909Z,85.54
2023-03-26T00:07:48.928Z,85.78
2023-03-26T00:08:53.366Z,85.86
2023-03-26T00:09:56.123Z,85.96
2023-03-26T00:11:01.052Z,85.85
2023-03-26T00:12:05.087Z,85.79
2023-03-26T00:13:08.433Z,86.08
2023-03-26T00:14:14.219Z,85.87
2023-03-26T00:15:16.832Z,86.06
2023-03-26T00:16:22.452Z,86.20
2023-03-26T00:17:25.140Z,86.27
2023-03-26T00:18:31.730Z,86.35
2023-03-26T00:19:34.390Z,86.24
2023-03-26T00:20:38.540Z,86.45
2023-03-26T00:21:41.687Z,86.46
2023-03-26T00:22:45.774Z,86.63
2023-03-26T00:23:49.469Z,86.72
2023-03-26T00:24:52.642Z,86.68
2023-03-26T00:25:56.485Z,86.65
2023-03-26T00:27:01.198Z,86.78
2023-03-26T00:28:04.374Z,86.55
2023-03-26T00:29:10.012Z,86.74
2023-03-26T00:30:13.118Z,87.05
2023-03-26T00:31:17.070Z,86.74
2023-03-26T00:32:21.116Z,87.01
2023-03-26T00:33:25.037Z,87.28
2023-03-26T00:34:27.496Z,86.97
2023-03-26T00:35:31.394Z,86.95
2023-03-26T00:36:36.339Z,86.99
2023-03-26T00:37:43.286Z,87.34
2023-03-26T00:38:47.217Z,87.15
2023-03-26T00:39:50.800Z,87.38
2023-03-26T00:40:53.591Z,87.28
2023-03-26T00:41:57.388Z,87.56
2023-03-26T00:42:59.888Z,87.26
2023-03-26T00:44:03.682Z,87.40
2023-03-26T00:45:06.460Z,87.36
2023-03-26T00:46:10.061Z,87.55
2023-03-26T00:47:13.416Z,87.53
2023-03-26T00:48:19.514Z,87.62
2023-03-26T00:49:22.189Z,87.42
2023-03-26T00:50:25.865Z,87.72
2023-03-26T00:51:28.442Z,87.88
2023-03-26T00:52:32.214Z,87.58
2023-03-26T00:53:34.651Z,87.57
2023-03-26T00:54:38.470Z,87.77
2023-03-26T00:55:41.748Z,87.69
2023-03-26T00:56:45.274Z,87.87
2023-03-26T00:57:47.763Z,87.89
2023-03-26T00:58:51.627Z,87.95
2023-03-26T00:59:54.210Z,87.92
2023-03-26T01:01:00.904Z,87.71
2023-03-26T01:02:05.213Z,87.81
2023-03-26T01:03:07.905Z,87.84
2023-03-26T01:04:32.087Z,88.02
2023-03-26T01:05:53.369Z,87.98
2023-03-26T01:06:58.716Z,88.28
2023-03-26T01:08:02.188Z,88.04
2023-03-26T01:09:12.868Z,88.11
2023-03-26T01:10:15.354Z,87.95
2023-03-26T01:11:22.165Z,88.03
2023-03-26T01:12:28.122Z,88.31
2023-03-26T01:13:35.341Z,88.23
2023-03-26T01:14:38.796Z,88.05
2023-03-26T01:15:42.552Z,88.01
2023-03-26T01:16:50.246Z,88.37
2023-03-26T01:17:58.057Z,88.46
2023-03-26T01:19:02.378Z,88.29
2023-03-26T01:20:15.220Z,88.17
2023-03-26T01:21:23.602Z,88.48
2023-03-26T01:22:27.962Z,88.55
2023-03-26T01:23:39.544Z,88.53
2023-03-26T01:24:46.451Z,88.67
2023-03-26T01:25:56.276Z,88.41
2023-03-26T01:27:11.163Z,88.77
2023-03-26T01:28:14.432Z,88.97
2023-03-26T01:29:23.954Z,88.87
2023-03-26T01:30:35.081Z,88.90
2023-03-26T01:31:48.593Z,88.89
2023-03-26T01:32:59.310Z,88.81
2023-03-26T01:34:12.653Z,88.73
2023-03-26T01:35:29.626Z,89.03
2023-03-26T01:36:40.797Z,89.06
2023-03-26T01:37:53.948Z,88.99
2023-03-26T01:39:04.741Z,89.08
2023-03-26T01:40:12.611Z,89.01
2023-03-26T01:41:22.583Z,89.14
2023-03-26T01:42:28.475Z,89.08
2023-03-26T01:43:37.805Z,89.25
2023-03-26T01:44:48.410Z,89.40
2023-03-26T01:45:53.972Z,89.65
2023-03-26T01:46:59.234Z,89.60
2023-03-26T01:48:03.260Z,89.46
2023-03-26T01:49:06.839Z,89.39
2023-03-26T01:50:11.403Z,89.47
2023-03-26T01:51:25.655Z,89.54
2023-03-26T01:52:29.248Z,89.48
2023-03-26T01:53:33.666Z,89.48
2023-03-26T01:54:37.362Z,89.32
2023-03-26T01:55:49.814Z,89.43
2023-03-26T01:57:04.445Z,89.46
2023-03-26T01:58:12.964Z,89.33
2023-03-26T01:59:33.975Z,89.56
2023-03-26T02:00:42.635Z,89.42
2023-03-26T02:01:55.036Z,89.60
2023-03-26T02:03:18.034Z,89.37
2023-03-26T02:04:26.778Z,89.68
2023-03-26T02:05:35.442Z,89.53
2023-03-26T02:06:45.154Z,89.42
2023-03-26T02:07:54.473Z,89.65
2023-03-26T02:09:01.227Z,89.27
2023-03-26T02:10:10.604Z,89.29
2023-03-26T02:11:16.655Z,89.20
2023-03-26T02:12:22.871Z,89.29
2023-03-26T02:13:26.084Z,89.14
2023-03-26T02:14:31.527Z,89.27
2023-03-26T02:15:34.147Z,89.15
2023-03-26T02:16:37.841Z,89.33
2023-03-26T02:17:40.714Z,89.08
2023-03-26T02:18:45.283Z,89.02
2023-03-26T02:19:48.324Z,89.04
2023-03-26T02:20:53.269Z,89.27
2023-03-26T02:22:00.095Z,89.14
2023-03-26T02:23:02.564Z,89.10
2023-03-26T02:24:06.364Z,89.17
2023-03-26T02:25:10.884Z,89.16
2023-03-26T02:26:18.733Z,89.13
2023-03-26T02:27:21.296Z,88.95
2023-03-26T02:28:24.946Z,88.94
2023-03-26T02:29:27.856Z,89.17
2023-03-26T02:30:34.068Z,89.16
2023-03-26T02:31:36.961Z,89.28
2023-03-26T02:32:40.784Z,89.04
2023-03-26T02:33:44.871Z,88.97
2023-03-26T02:34:48.437Z,89.37
2023-03-26T02:35:50.995Z,89.05
2023-03-26T02:36:54.766Z,89.18
2023-03-26T02:37:57.017Z,89.20
2023-03-26T02:39:01.231Z,89.16
2023-03-26T02:40:05.565Z,89.01
2023-03-26T02:41:09.552Z,89.08
2023-03-26T02:42:13.553Z,89.29
2023-03-26T02:43:17.135Z,89.09
2023-03-26T02:44:19.636Z,89.01
2023-03-26T02:45:23.431Z,88.98
2023-03-26T02:46:25.653Z,88.98
2023-03-26T02:47:29.354Z,89.09
2023-03-26T02:48:31.716Z,89.09
2023-03-26T02:49:35.466Z,89.00
2023-03-26T02:50:39.606Z,88.98
2023-03-26T02:51:42.267Z,88.97
2023-03-26T02:52:49.261Z,88.94
2023-03-26T02:53:53.895Z,89.02
2023-03-26T02:54:57.438Z,88.83
2023-03-26T02:56:00.823Z,89.06
2023-03-26T02:57:04.670Z,88.96
2023-03-26T02:58:08.795Z,89.23
2023-03-26T02:59:12.373Z,88.87
2023-03-26T03:00:15.569Z,88.99
2023-03-26T03:01:19.223Z,88.82
2023-03-26T03:02:24.577Z,88.83
2023-03-26T03:03:30.272Z,89.01
2023-03-26T03:04:32.763Z,88.77
2023-03-26T03:05:38.290Z,88.61
2023-03-26T03:06:40.878Z,88.81
2023-03-26T03:07:46.784Z,88.81
2023-03-26T03:08:50.206Z,88.73
2023-03-26T03:09:53.749Z,88.38
2023-03-26T03:10:57.951Z,88.42
2023-03-26T03:12:01.543Z,88.52
2023-03-26T03:13:06.232Z,88.59
2023-03-26T03:14:11.303Z,88.35
2023-03-26T03:15:14.260Z,88.43
2023-03-26T03:16:18.615Z,88.38
2023-03-26T03:17:21.331Z,88.27
2023-03-26T03:18:25.034Z,88.11
2023-03-26T03:19:27.332Z,88.14
2023-03-26T03:20:31.163Z,88.15
2023-03-26T03:21:33.639Z,88.03
2023-03-26T03:22:37.207Z,88.02
2023-03-26T03:23:39.867Z,88.00
2023-03-26T03:24:44.026Z,87.89
2023-03-26T03:25:47.021Z,87.83
2023-03-26T03:26:50.540Z,88.10
2023-03-26T03:27:54.144Z,87.76
2023-03-26T03:28:58.718Z,87.71
2023-03-26T03:30:03.118Z,87.87
2023-03-26T03:31:09.294Z,87.65
2023-03-26T03:32:11.826Z,87.50
2023-03-26T03:33:15.629Z,87.55
2023-03-26T03:34:19.270Z,87.54
2023-03-26T03:35:21.442Z,87.46
2023-03-26T03:36:28.078Z,87.28
2023-03-26T03:37:30.908Z,87.34
2023-03-26T03:38:34.595Z,87.11
2023-03-26T03:39:37.208Z,87.17
2023-03-26T03:40:40.767Z,87.21
2023-03-26T03:41:43.318Z,87.07
2023-03-26T03:42:46.926Z,87.06
2023-03-26T03:43:49.416Z,87.21
2023-03-26T03:44:53.184Z,87.09
2023-03-26T03:45:57.809Z,87.01
2023-03-26T03:47:01.761Z,86.96
2023-03-26T03:48:04.074Z,86.82
2023-03-26T03:49:07.588Z,86.83
2023-03-26T03:50:11.081Z,86.99
2023-03-26T03:51:14.571Z,86.91
2023-03-26T03:52:18.304Z,87.00
2023-03-26T03:53:21.960Z,86.83
2023-03-26T03:54:24.410Z,86.80
2023-03-26T03:55:29.011Z,86.93
2023-03-26T03:56:31.560Z,86.70
2023-03-26T03:57:35.340Z,86.65
2023-03-26T03:58:37.550Z,86.46
2023-03-26T03:59:47.310Z,86.36
2023-03-26T04:00:51.718Z,86.59
2023-03-26T04:01:56.638Z,86.28
2023-03-26T04:02:59.394Z,86.16
2023-03-26T04:04:03.096Z,86.60
2023-03-26T04:05:06.259Z,86.43
2023-03-26T04:06:11.353Z,86.49
2023-03-26T04:07:13.867Z,86.47
2023-03-26T04:08:18.079Z,86.01
2023-03-26T04:09:20.536Z,86.44
2023-03-26T04:10:24.116Z,86.29
2023-03-26T04:11:26.764Z,86.57
2023-03-26T04:12:30.646Z,86.19
2023-03-26T04:13:33.191Z,86.35
2023-03-26T04:14:36.839Z,86.47
2023-03-26T04:15:39.248Z,86.37
2023-03-26T04:16:42.627Z,86.29
2023-03-26T04:17:46.488Z,86.18
2023-03-26T04:18:50.039Z,86.37
2023-03-26T04:19:53.352Z,86.23
2023-03-26T04:20:57.016Z,86.41
2023-03-26T04:22:02.866Z,86.40
2023-03-26T04:23:06.708Z,86.29
2023-03-26T04:24:09.348Z,86.38
2023-03-26T04:25:13.983Z,86.32
2023-03-26T04:26:19.995Z,86.49
2023-03-26T04:27:30.582Z,86.18
2023-03-26T04:28:36.667Z,86.13
2023-03-26T04:29:44.330Z,86.13
2023-03-26T04:30:46.760Z,86.10
2023-03-26T04:31:50.795Z,85.99
2023-03-26T04:32:58.813Z,86.01
2023-03-26T04:34:08.607Z,86.05
2023-03-26T04:35:13.610Z,86.19
2023-03-26T04:36:18.554Z,85.81
2023-03-26T04:37:27.732Z,85.79
2023-03-26T04:38:35.835Z,85.87
2023-03-26T04:39:39.234Z,85.64
2023-03-26T04:40:42.759Z,85.72
2023-03-26T04:41:45.208Z,85.65
2023-03-26T04:42:48.972Z,85.91
2023-03-26T04:43:53.360Z,85.86
2023-03-26T04:44:59.877Z,85.64
2023-03-26T04:46:03.562Z,85.49
2023-03-26T04:47:07.203Z,85.57
2023-03-26T04:48:14.533Z,85.67
2023-03-26T04:49:18.308Z,85.22
2023-03-26T04:50:21.136Z,85.45
2023-03-26T04:51:28.226Z,85.22
2023-03-26T04:52:31.052Z,85.43
2023-03-26T04:53:36.879Z,85.25
2023-03-26T04:54:39.664Z,85.29
2023-03-26T04:55:49.184Z,85.05
2023-03-26T04:56:55.542Z,85.25
2023-03-26T04:58:03.601Z,85.15
2023-03-26T04:59:08.269Z,84.83
2023-03-26T05:00:18.950Z,85.01
2023-03-26T05:01:22.214Z,84.86
2023-03-26T05:02:26.314Z,84.79
2023-03-26T05:03:32.093Z,84.72
2023-03-26T05:04:37.042Z,84.49
2023-03-26T05:05:40.301Z,84.35
2023-03-26T05:06:43.941Z,84.36
2023-03-26T05:07:46.148Z,84.25
2023-03-26T05:08:49.845Z,84.04
2023-03-26T05:09:52.005Z,83.87
2023-03-26T05:10:55.858Z,83.54
2023-03-26T05:11:58.737Z,83.54
2023-03-26T05:13:02.333Z,83.44
2023-03-26T05:14:04.801Z,83.34
2023-03-26T05:15:10.277Z,83.20
2023-03-26T05:16:12.827Z,83.13
2023-03-26T05:17:19.091Z,83.04
2023-03-26T05:18:21.563Z,82.89
2023-03-26T05:19:26.563Z,82.72
2023-03-26T05:20:31.342Z,82.45
2023-03-26T05:21:35.200Z,82.22
2023-03-26T05:22:38.806Z,82.18
2023-03-26T05:23:42.447Z,81.90
2023-03-26T05:24:44.596Z,81.89
2023-03-26T05:25:48.505Z,81.65
2023-03-26T05:26:51.163Z,81.75
2023-03-26T05:27:54.676Z,81.50
2023-03-26T05:28:57.206Z,81.51
2023-03-26T05:30:02.885Z,81.41
2023-03-26T05:31:07.264Z,81.33
2023-03-26T05:32:11.699Z,81.12
2023-03-26T05:33:14.315Z,81.25
2023-03-26T05:34:17.975Z,81.29
2023-03-26T05:35:21.963Z,81.00
2023-03-26T05:36:26.185Z,81.08
2023-03-26T05:37:31.310Z,80.92
2023-03-26T05:38:35.887Z,81.11
2023-03-26T05:39:38.661Z,80.93
2023-03-26T05:40:42.253Z,80.83
2023-03-26T05:41:44.434Z,80.84
2023-03-26T05:42:48.123Z,80.88
2023-03-26T05:43:51.337Z,80.89
2023-03-26T05:44:54.848Z,80.96
2023-03-26T05:45:57.632Z,80.84
2023-03-26T05:47:01.247Z,81.01
2023-03-26T05:48:03.982Z,81.01
2023-03-26T05:49:07.628Z,80.70
2023-03-26T05:50:11.501Z,80.82
2023-03-26T05:51:16.929Z,80.87
2023-03-26T05:52:19.402Z,80.74
2023-03-26T05:53:24.376Z,80.82
2023-03-26T05:54:26.988Z,80.76
2023-03-26T05:55:33.598Z,80.88
2023-03-26T05:56:36.233Z,80.87
2023-03-26T05:57:39.785Z,80.65
2023-03-26T05:58:42.944Z,80.67
2023-03-26T05:59:46.538Z,80.67
2023-03-26T06:00:49.044Z,80.68
2023-03-26T06:01:54.775Z,80.45
2023-03-26T06:02:57.691Z,80.42
2023-03-26T06:04:01.588Z,80.37
2023-03-26T06:05:05.453Z,80.40
2023-03-26T06:06:09.725Z,80.32
2023-03-26T06:07:13.811Z,80.41
2023-03-26T06:08:17.307Z,80.11
2023-03-26T06:09:19.864Z,80.14
2023-03-26T06:10:24.048Z,79.86
2023-03-26T06:11:26.515Z,79.84
2023-03-26T06:12:30.259Z,79.96
2023-03-26T06:13:32.404Z,79.86
2023-03-26T06:14:36.348Z,79.78
2023-03-26T06:15:38.798Z,79.84
2023-03-26T06:16:42.492Z,79.52
2023-03-26T06:17:44.650Z,79.57
2023-03-26T06:18:48.596Z,79.62
2023-03-26T06:19:59.459Z,79.45
2023-03-26T06:21:03.224Z,79.40
2023-03-26T06:22:06.270Z,79.29
2023-03-26T06:23:11.398Z,79.32
2023-03-26T06:24:16.651Z,78.98
2023-03-26T06:25:19.334Z,78.83
2023-03-26T06:26:22.929Z,78.61
2023-03-26T06:27:25.770Z,78.77
2023-03-26T06:28:29.417Z,78.47
2023-03-26T06:29:31.715Z,78.29
2023-03-26T06:30:35.483Z,78.33
2023-03-26T06:31:37.977Z,78.28
2023-03-26T06:32:41.913Z,78.20
2023-03-26T06:33:44.435Z,78.45
2023-03-26T06:34:48.073Z,78.29
2023-03-26T06:35:50.437Z,78.51
2023-03-26T06:36:53.928Z,78.39
2023-03-26T06:37:56.396Z,78.44
2023-03-26T06:39:01.503Z,78.41
2023-03-26T06:40:11.408Z,78.57
2023-03-26T06:41:16.307Z,78.44
2023-03-26T06:42:18.478Z,78.45
2023-03-26T06:43:22.298Z,78.51
2023-03-26T06:44:24.783Z,78.40
2023-03-26T06:45:28.427Z,78.58
2023-03-26T06:46:30.814Z,78.35
2023-03-26T06:47:35.101Z,78.58
2023-03-26T06:48:38.058Z,78.44
2023-03-26T06:49:43.128Z,78.50
2023-03-26T06:50:47.752Z,78.48
2023-03-26T06:51:51.423Z,78.52
2023-03-26T06:52:53.997Z,78.60
2023-03-26T06:53:57.603Z,78.68
2023-03-26T06:55:01.962Z,78.84
2023-03-26T06:56:07.169Z,78.69
2023-03-26T06:57:11.664Z,78.43
2023-03-26T06:58:16.959Z,78.47
2023-03-26T06:59:20.026Z,78.63
2023-03-26T07:00:24.205Z,78.59
2023-03-26T07:01:29.332Z,78.52
2023-03-26T07:02:33.189Z,78.63
2023-03-26T07:03:35.756Z,78.65
2023-03-26T07:04:39.537Z,78.59
2023-03-26T07:05:42.240Z,78.75
2023-03-26T07:06:46.185Z,78.70
2023-03-26T07:07:48.823Z,78.64
2023-03-26T07:08:52.492Z,78.68
2023-03-26T07:09:54.657Z,78.47
2023-03-26T07:10:59.730Z,78.39
2023-03-26T07:12:02.260Z,78.44
2023-03-26T07:13:06.025Z,78.42
2023-03-26T07:14:08.508Z,78.12
2023-03-26T07:15:12.585Z,78.19
2023-03-26T07:16:15.479Z,78.30
2023-03-26T07:17:19.103Z,78.12
2023-03-26T07:18:22.037Z,78.18
2023-03-26T07:19:25.498Z,77.69
2023-03-26T07:20:28.628Z,77.96
2023-03-26T07:21:32.868Z,77.87
2023-03-26T07:22:36.434Z,77.68
2023-03-26T07:23:40.547Z,77.77
2023-03-26T07:24:44.122Z,77.54
2023-03-26T07:25:47.775Z,77.49
2023-03-26T07:27:01.689Z,77.35
2023-03-26T07:28:14.900Z,77.29
2023-03-26T07:29:24.209Z,77.15
2023-03-26T07:30:34.024Z,77.05
2023-03-26T07:31:42.820Z,77.03
2023-03-26T07:32:54.627Z,76.95
2023-03-26T07:34:04.734Z,77.05
2023-03-26T07:35:15.360Z,76.79
2023-03-26T07:36:26.076Z,76.86
2023-03-26T07:37:42.145Z,76.67
2023-03-26T07:39:00.389Z,76.75
2023-03-26T07:40:11.989Z,76.58
2023-03-26T07:41:24.386Z,76.50
2023-03-26T07:42:42.432Z,76.27
2023-03-26T07:44:04.441Z,76.06
2023-03-26T07:45:21.233Z,76.16
2023-03-26T07:46:32.146Z,75.76
2023-03-26T07:47:37.820Z,75.44
2023-03-26T07:48:42.987Z,75.26
2023-03-26T07:49:47.525Z,74.89
2023-03-26T07:50:51.815Z,74.79
2023-03-26T07:51:54.841Z,74.73
2023-03-26T07:52:58.945Z,74.37
2023-03-26T07:54:04.356Z,74.29
2023-03-26T07:55:08.618Z,74.35
2023-03-26T07:56:17.003Z,73.99
2023-03-26T07:57:29.425Z,73.71
2023-03-26T07:59:01.699Z,73.41
2023-03-26T08:00:12.443Z,73.41
2023-03-26T08:01:24.060Z,73.09
2023-03-26T08:02:59.044Z,73.16
2023-03-26T08:04:23.783Z,73.00
2023-03-26T08:05:32.280Z,73.12
2023-03-26T08:06:36.862Z,72.91
2023-03-26T08:07:53.599Z,72.64
2023-03-26T08:09:06.196Z,72.59
2023-03-26T08:10:17.528Z,72.81
2023-03-26T08:11:31.520Z,72.78
2023-03-26T08:12:42.048Z,72.17
2023-03-26T08:14:02.198Z,72.03
2023-03-26T08:15:13.494Z,71.56
2023-03-26T08:16:24.848Z,71.57
2023-03-26T08:17:38.251Z,71.31
2023-03-26T08:18:50.828Z,71.41
2023-03-26T08:20:11.093Z,71.10
2023-03-26T08:21:20.926Z,70.85
2023-03-26T08:22:27.565Z,71.10
2023-03-26T08:23:50.320Z,71.07
2023-03-26T08:25:19.070Z,70.86
2023-03-26T08:26:33.633Z,70.74
2023-03-26T08:27:41.219Z,70.74
2023-03-26T08:29:04.069Z,70.50
2023-03-26T08:30:15.029Z,70.56
2023-03-26T08:31:20.294Z,70.63
2023-03-26T08:32:23.836Z,70.33
2023-03-26T08:33:28.964Z,70.58
2023-03-26T08:34:32.540Z,70.21
2023-03-26T08:35:35.508Z,70.18
2023-03-26T08:36:39.467Z,70.06
2023-03-26T08:37:42.112Z,69.69
2023-03-26T08:38:46.886Z,69.77
2023-03-26T08:39:49.633Z,69.59
2023-03-26T08:41:40.967Z,69.45
2023-03-26T08:43:14.886Z,69.01
2023-03-26T08:45:02.738Z,68.95
2023-03-26T08:46:45.757Z,68.59
2023-03-26T08:48:19.747Z,68.36
2023-03-26T08:49:47.653Z,68.26
2023-03-26T08:51:28.437Z,67.91
2023-03-26T08:52:54.912Z,67.99
2023-03-26T08:54:30.286Z,67.98
2023-03-26T08:55:46.741Z,68.00
2023-03-26T08:57:04.064Z,68.10
2023-03-26T08:59:00.443Z,67.89
2023-03-26T09:00:43.215Z,67.81
2023-03-26T09:02:19.777Z,67.71
2023-03-26T09:03:42.823Z,67.86
2023-03-26T09:05:20.392Z,67.76
2023-03-26T09:06:56.934Z,67.60
2023-03-26T09:08:54.237Z,67.32
2023-03-26T09:10:46.864Z,67.23
2023-03-26T09:12:14.580Z,67.11
2023-03-26T09:13:51.847Z,66.72
2023-03-26T09:15:21.242Z,66.72
2023-03-26T09:16:49.344Z,66.62
2023-03-26T09:18:26.757Z,66.44
2023-03-26T09:20:06.420Z,66.46
2023-03-26T09:21:44.592Z,66.15
2023-03-26T09:23:34.921Z,65.84
2023-03-26T09:25:32.460Z,65.78
2023-03-26T09:26:48.249Z,65.28
2023-03-26T09:28:22.180Z,65.00
2023-03-26T09:29:54.973Z,65.06
2023-03-26T09:31:22.408Z,65.12
2023-03-26T09:33:11.785Z,65.02
2023-03-26T09:34:29.288Z,64.65
2023-03-26T09:35:52.408Z,64.32
2023-03-26T09:36:58.004Z,64.25
2023-03-26T09:38:07.573Z,63.81
2023-03-26T09:39:17.526Z,63.79
2023-03-26T09:40:23.327Z,63.78
2023-03-26T09:41:37.281Z,63.14
2023-03-26T09:42:46.026Z,63.38
2023-03-26T09:44:32.927Z,63.25
2023-03-26T09:45:53.000Z,62.92
2023-03-26T09:47:14.003Z,62.71
2023-03-26T09:48:46.512Z,62.44
2023-03-26T09:49:55.671Z,62.43
2023-03-26T09:51:20.666Z,62.35
2023-03-26T09:53:01.628Z,62.02
2023-03-26T09:54:17.841Z,62.14
2023-03-26T09:55:46.662Z,61.89
2023-03-26T09:56:58.100Z,61.73
2023-03-26T09:58:46.941Z,61.75
2023-03-26T10:00:19.166Z,61.16
2023-03-26T10:01:32.325Z,61.23
2023-03-26T10:02:58.971Z,61.27
2023-03-26T10:04:36.100Z,60.94
2023-03-26T10:06:12.196Z,60.65
2023-03-26T10:07:43.129Z,60.30
2023-03-26T10:09:23.940Z,60.17
2023-03-26T10:10:37.184Z,59.53
2023-03-26T10:12:03.851Z,59.00
2023-03-26T10:13:21.950Z,58.49
2023-03-26T10:14:34.221Z,58.65
2023-03-26T10:15:54.955Z,58.31
2023-03-26T10:17:13.760Z,58.66
2023-03-26T10:18:29.401Z,58.31
2023-03-26T10:19:43.394Z,58.20
2023-03-26T10:20:58.438Z,58.37
2023-03-26T10:22:13.210Z,58.29
2023-03-26T10:23:28.096Z,58.34
2023-03-26T10:24:47.881Z,58.31
2023-03-26T10:26:09.983Z,58.33
2023-03-26T10:27:38.940Z,58.20
2023-03-26T10:29:17.562Z,57.73
2023-03-26T10:30:51.106Z,57.83
2023-03-26T10:32:07.714Z,58.14
2023-03-26T10:33:20.760Z,58.17
2023-03-26T10:34:45.841Z,57.93
2023-03-26T10:36:02.381Z,57.39
2023-03-26T10:37:11.925Z,57.13
2023-03-26T10:38:25.739Z,57.04
2023-03-26T10:40:01.212Z,57.11
2023-03-26T10:41:10.544Z,56.98
2023-03-26T10:42:49.877Z,57.20
2023-03-26T10:44:19.859Z,56.48
2023-03-26T10:45:52.387Z,56.50
2023-03-26T10:47:26.355Z,56.31
2023-03-26T10:48:54.140Z,56.64
2023-03-26T10:50:27.956Z,56.80
2023-03-26T10:51:48.821Z,56.63
2023-03-26T10:53:00.526Z,56.80
2023-03-26T10:54:09.840Z,56.81
2023-03-26T10:55:20.047Z,56.89
2023-03-26T10:56:27.824Z,56.48
2023-03-26T10:57:42.365Z,56.86
2023-03-26T10:58:49.380Z,56.60
2023-03-26T10:59:55.836Z,56.37
2023-03-26T11:01:04.038Z,56.39
2023-03-26T11:02:29.074Z,56.17
2023-03-26T11:03:52.404Z,56.37
2023-03-26T11:05:04.958Z,56.58
2023-03-26T11:06:18.634Z,56.68
2023-03-26T11:07:28.502Z,56.55
2023-03-26T11:08:35.927Z,56.51
2023-03-26T11:09:46.524Z,56.72
2023-03-26T11:10:57.618Z,56.86
2023-03-26T11:12:26.321Z,56.85
2023-03-26T11:13:44.568Z,56.99
2023-03-26T11:14:53.014Z,57.10
2023-03-26T11:16:03.330Z,57.46
2023-03-26T11:17:40.096Z,57.42
2023-03-26T11:18:50.712Z,57.65
2023-03-26T11:19:59.215Z,57.66
2023-03-26T11:21:18.873Z,57.81
2023-03-26T11:22:35.952Z,57.94
2023-03-26T11:23:47.709Z,57.75
2023-03-26T11:25:36.279Z,58.56
2023-03-26T11:26:50.774Z,57.89
2023-03-26T11:28:09.632Z,58.26
2023-03-26T11:29:36.559Z,58.28
2023-03-26T11:30:47.405Z,58.50
2023-03-26T11:32:00.943Z,58.43
2023-03-26T11:33:09.327Z,58.30
2023-03-26T11:34:16.641Z,58.49
2023-03-26T11:35:40.562Z,58.51
2023-03-26T11:36:50.876Z,58.49
2023-03-26T11:37:55.759Z,58.02
2023-03-26T11:39:04.612Z,58.06
2023-03-26T11:40:15.796Z,58.03
2023-03-26T11:41:23.467Z,57.49
2023-03-26T11:42:26.391Z,57.52
2023-03-26T11:43:35.670Z,57.41
2023-03-26T11:44:42.843Z,57.26
2023-03-26T11:45:49.202Z,57.11
2023-03-26T11:46:58.979Z,57.21
2023-03-26T11:48:09.722Z,56.92
2023-03-26T11:49:15.053Z,56.58
2023-03-26T11:50:23.285Z,56.44
2023-03-26T11:51:32.170Z,56.12
2023-03-26T11:52:34.844Z,56.10
2023-03-26T11:53:40.129Z,55.93
2023-03-26T11:54:49.714Z,55.94
2023-03-26T11:56:04.293Z,55.73
2023-03-26T11:57:11.366Z,55.71
2023-03-26T11:58:30.082Z,55.43
2023-03-26T11:59:48.926Z,55.29
2023-03-26T12:00:56.833Z,55.15
2023-03-26T12:02:17.645Z,54.94
2023-03-26T12:03:21.101Z,54.74
2023-03-26T12:04:29.993Z,55.06
2023-03-26T12:05:50.084Z,54.83
2023-03-26T12:06:56.812Z,54.53
2023-03-26T12:08:02.145Z,54.41
2023-03-26T12:09:04.727Z,54.02
2023-03-26T12:10:24.135Z,53.90
2023-03-26T12:11:35.631Z,53.62
2023-03-26T12:12:41.642Z,53.60
2023-03-26T12:13:52.190Z,53.27
2023-03-26T12:14:55.641Z,52.85
2023-03-26T12:16:02.703Z,52.72
2023-03-26T12:17:09.874Z,52.59
2023-03-26T12:18:25.982Z,52.18
2023-03-26T12:19:37.217Z,51.70
2023-03-26T12:20:39.734Z,52.07
2023-03-26T12:21:47.790Z,52.02
2023-03-26T12:22:52.401Z,51.76
2023-03-26T12:23:59.285Z,51.80
2023-03-26T12:25:03.950Z,51.92
2023-03-26T12:26:17.023Z,51.89
2023-03-26T12:27:28.629Z,51.71
2023-03-26T12:28:33.680Z,52.03
2023-03-26T12:29:37.428Z,51.80
2023-03-26T12:30:42.528Z,51.63
2023-03-26T12:32:04.389Z,51.87
2023-03-26T12:33:14.560Z,51.61
2023-03-26T12:34:21.391Z,51.72
2023-03-26T12:35:28.167Z,51.77
2023-03-26T12:36:33.542Z,51.45
2023-03-26T12:37:38.857Z,51.60
2023-03-26T12:38:42.684Z,51.71
2023-03-26T12:40:08.661Z,51.66
2023-03-26T12:44:42.500Z,51.46
2023-03-26T12:44:49.666Z,51.27
2023-03-26T12:44:56.211Z,51.44
2023-03-26T12:47:55.431Z,51.81
2023-03-26T12:47:58.376Z,51.98
2023-03-26T12:48:44.591Z,51.66
2023-03-26T12:49:50.380Z,51.65
2023-03-26T12:51:11.448Z,51.89
2023-03-26T12:52:38.728Z,51.64
2023-03-26T12:53:58.200Z,51.88
2023-03-26T12:55:12.068Z,51.70
2023-03-26T12:56:24.346Z,52.07
2023-03-26T12:57:33.786Z,52.05
2023-03-26T12:58:55.231Z,52.53
2023-03-26T13:00:11.664Z,52.24
2023-03-26T13:01:26.647Z,52.57
2023-03-26T13:03:11.503Z,52.62
2023-03-26T13:04:38.941Z,52.82
2023-03-26T13:05:53.344Z,52.94
2023-03-26T13:07:02.610Z,52.71
2023-03-26T13:08:32.871Z,52.97
2023-03-26T13:09:53.222Z,53.55
2023-03-26T13:11:07.251Z,53.46
2023-03-26T13:12:26.080Z,53.68
2023-03-26T13:13:57.198Z,53.97
2023-03-26T13:15:14.529Z,54.01
2023-03-26T13:16:26.309Z,54.46
2023-03-26T13:17:41.476Z,54.55
2023-03-26T13:18:52.135Z,55.23
2023-03-26T13:20:12.378Z,55.46
2023-03-26T13:21:25.304Z,55.86
2023-03-26T13:22:39.323Z,56.33
2023-03-26T13:23:52.826Z,56.71
2023-03-26T13:25:02.065Z,56.85
2023-03-26T13:26:18.244Z,57.20
2023-03-26T13:27:38.337Z,57.25
2023-03-26T13:28:54.741Z,57.44
2023-03-26T13:30:03.260Z,57.25
2023-03-26T13:31:22.556Z,57.66
2023-03-26T13:32:37.587Z,57.47
2023-03-26T13:33:51.280Z,57.80
2023-03-26T13:35:06.553Z,58.14
2023-03-26T13:36:24.189Z,58.46
2023-03-26T13:37:36.440Z,58.24
2023-03-26T13:38:58.952Z,58.46
2023-03-26T13:40:17.570Z,58.39
2023-03-26T13:41:31.719Z,58.58
2023-03-26T13:42:48.201Z,58.49
2023-03-26T13:44:01.945Z,58.58
2023-03-26T13:45:15.596Z,58.77
2023-03-26T13:46:28.732Z,58.74
2023-03-26T13:47:36.063Z,58.83
2023-03-26T13:48:45.123Z,58.95
2023-03-26T13:49:56.981Z,59.06
2023-03-26T13:51:06.910Z,59.25
2023-03-26T13:52:16.323Z,59.44
2023-03-26T13:53:25.942Z,59.58
2023-03-26T13:54:33.562Z,59.59
2023-03-26T13:55:40.438Z,59.74
2023-03-26T13:56:49.809Z,59.92
2023-03-26T13:58:03.442Z,59.57
2023-03-26T13:59:12.894Z,60.24
2023-03-26T14:00:22.127Z,59.98
2023-03-26T14:01:35.138Z,60.45
2023-03-26T14:02:43.200Z,60.50
2023-03-26T14:03:59.264Z,60.73
2023-03-26T14:05:09.198Z,60.91
2023-03-26T14:06:30.160Z,60.97
2023-03-26T14:07:40.165Z,61.37
2023-03-26T14:08:47.459Z,61.22
2023-03-26T14:09:58.668Z,61.48
2023-03-26T14:11:11.110Z,61.52
2023-03-26T14:12:33.669Z,61.84
2023-03-26T14:13:50.537Z,62.12
2023-03-26T14:14:58.304Z,62.19
2023-03-26T14:16:06.769Z,62.55
2023-03-26T14:17:17.468Z,62.76
2023-03-26T14:18:31.237Z,62.82
2023-03-26T14:19:57.861Z,63.22
2023-03-26T14:21:34.529Z,63.30
2023-03-26T14:22:54.684Z,63.57
2023-03-26T14:24:44.151Z,63.95
2023-03-26T14:26:00.303Z,64.35
2023-03-26T14:27:20.223Z,64.36
2023-03-26T14:28:53.963Z,64.65
2023-03-26T14:30:29.605Z,64.61
2023-03-26T14:31:37.892Z,64.90
2023-03-26T14:33:03.381Z,64.87
2023-03-26T14:34:24.569Z,65.28
2023-03-26T14:35:37.828Z,65.33
2023-03-26T14:37:06.292Z,65.44
2023-03-26T14:38:48.138Z,65.75
2023-03-26T14:40:15.085Z,66.07
2023-03-26T14:41:25.540Z,66.12
2023-03-26T14:42:41.600Z,66.57
2023-03-26T14:44:11.439Z,66.65
2023-03-26T14:45:54.427Z,66.84
2023-03-26T14:47:17.173Z,67.15
2023-03-26T14:48:44.156Z,67.40
2023-03-26T14:50:21.748Z,67.58
2023-03-26T14:51:37.852Z,67.59
2023-03-26T14:52:48.344Z,67.93
2023-03-26T14:53:55.968Z,68.09
2023-03-26T14:55:04.275Z,68.03
2023-03-26T14:56:27.530Z,68.13
2023-03-26T14:58:09.672Z,68.02
2023-03-26T14:59:57.757Z,68.25
2023-03-26T15:01:25.362Z,68.35
2023-03-26T15:03:12.845Z,68.84
2023-03-26T15:05:08.471Z,68.47
2023-03-26T15:06:38.307Z,68.67
2023-03-26T15:08:16.685Z,68.26
2023-03-26T15:10:06.006Z,68.08
2023-03-26T15:11:28.769Z,67.83
2023-03-26T15:13:03.953Z,67.77
2023-03-26T15:14:46.213Z,67.56